Time;durP1;ratioP1;P1;durP2;ratioP2;P2;SDS_P1;SDS_P2;PMS_P1;PMS_P2;Temp;Humidity;BMP_temperature;BMP_pressure;BME280_temperature;BME280_humidity;BME280_pressure;Samples;Min_cycle;Max_cycle;Signal;HPM_P1;HPM_P2
2023/12/18 00:00:26;;;;;;;28.87;22.37;;;;;;;0.26;67.04;96747.06;4981867;28;20227;-72
2023/12/18 00:02:51;;;;;;;26.93;22.20;;;;;;;0.28;67.28;96755.63;4977299;28;20315;-73
2023/12/18 00:05:17;;;;;;;28.70;21.57;;;;;;;0.13;67.70;96756.06;4963967;28;20282;-71
2023/12/18 00:07:43;;;;;;;26.40;21.50;;;;;;;0.12;67.86;96751.81;4989849;28;20206;-74
2023/12/18 00:10:08;;;;;;;26.40;21.13;;;;;;;0.05;68.19;96758.88;4985323;28;20320;-74
2023/12/18 00:12:34;;;;;;;28.30;22.77;;;;;;;0.08;68.27;96757.94;4979906;28;20285;-74
2023/12/18 00:15:02;;;;;;;27.77;22.27;;;;;;;0.16;67.59;96751.69;4983526;28;20254;-72
2023/12/18 00:17:28;;;;;;;29.70;23.73;;;;;;;0.19;67.64;96746.41;5000791;28;20293;-72
2023/12/18 00:19:53;;;;;;;28.83;22.63;;;;;;;0.11;67.54;96744.94;4988708;28;20187;-71
2023/12/18 00:22:19;;;;;;;27.93;20.83;;;;;;;0.08;67.67;96739.84;5000012;28;20230;-74
2023/12/18 00:24:44;;;;;;;26.90;20.97;;;;;;;0.08;67.37;96740.72;4969123;28;20231;-71
2023/12/18 00:27:09;;;;;;;29.50;23.13;;;;;;;0.10;67.13;96736.31;4973601;28;20230;-72
2023/12/18 00:29:35;;;;;;;25.97;21.00;;;;;;;0.15;67.25;96738.78;4981648;28;20250;-72
2023/12/18 00:32:00;;;;;;;30.53;22.60;;;;;;;0.06;67.40;96729.56;4985456;28;20200;-70
2023/12/18 00:34:26;;;;;;;26.80;21.83;;;;;;;0.11;66.92;96722.50;4991781;28;20188;-72
2023/12/18 00:36:51;;;;;;;26.63;20.73;;;;;;;0.11;66.80;96724.25;4980488;28;20318;-72
2023/12/18 00:39:17;;;;;;;26.00;21.03;;;;;;;0.01;66.89;96730.59;4969646;28;20236;-71
2023/12/18 00:41:43;;;;;;;28.20;21.83;;;;;;;0.01;67.38;96728.84;4973135;28;20234;-70
2023/12/18 00:44:08;;;;;;;27.67;21.33;;;;;;;0.01;67.17;96718.50;4973711;28;20235;-71
2023/12/18 00:46:34;;;;;;;29.73;21.30;;;;;;;0.07;67.16;96709.72;4988554;28;20250;-72
2023/12/18 00:48:59;;;;;;;23.57;19.07;;;;;;;-0.02;67.40;96724.63;4986647;28;20230;-71
2023/12/18 00:51:25;;;;;;;27.17;21.50;;;;;;;-0.18;67.65;96719.94;4974084;28;20234;-72
2023/12/18 00:53:50;;;;;;;30.00;22.00;;;;;;;-0.24;68.13;96716.66;4976890;28;20226;-72
2023/12/18 00:56:15;;;;;;;26.43;20.57;;;;;;;-0.09;67.66;96717.06;4985823;28;20237;-73
2023/12/18 00:58:41;;;;;;;26.07;21.07;;;;;;;-0.10;67.66;96716.25;4988642;28;20191;-72
2023/12/18 01:01:06;;;;;;;28.70;21.57;;;;;;;0.06;67.15;96719.22;4984517;28;20223;-72
2023/12/18 01:03:32;;;;;;;28.13;22.43;;;;;;;-0.04;67.19;96710.88;4985975;28;20238;-75
2023/12/18 01:05:57;;;;;;;28.27;21.97;;;;;;;-0.08;67.49;96703.25;4981447;28;20251;-71
2023/12/18 01:08:23;;;;;;;27.20;20.80;;;;;;;-0.04;67.23;96703.13;4977571;28;20225;-71
2023/12/18 01:10:48;;;;;;;25.90;20.93;;;;;;;-0.01;67.44;96692.69;4971904;28;20200;-74
2023/12/18 01:13:13;;;;;;;26.50;21.87;;;;;;;-0.02;67.44;96692.75;4983041;28;20222;-74
2023/12/18 01:15:39;;;;;;;30.07;22.23;;;;;;;-0.17;68.02;96698.34;4983974;28;20223;-71
2023/12/18 01:18:10;;;;;;;28.60;21.27;;;;;;;-0.20;67.77;96699.28;4981364;28;20226;-73
2023/12/18 01:20:36;;;;;;;26.43;20.53;;;;;;;-0.16;67.88;96695.75;4974813;28;20263;-73
2023/12/18 01:23:01;;;;;;;28.10;21.87;;;;;;;-0.06;67.33;96685.94;4979416;28;20277;-73
2023/12/18 01:25:27;;;;;;;24.37;20.27;;;;;;;-0.06;67.18;96688.53;4965433;28;20222;-71
2023/12/18 01:27:53;;;;;;;26.93;20.03;;;;;;;-0.09;67.45;96678.28;4971209;28;20229;-71
2023/12/18 01:30:18;;;;;;;28.30;21.20;;;;;;;-0.19;68.02;96669.94;4972911;28;20246;-72
2023/12/18 01:32:43;;;;;;;25.50;19.80;;;;;;;-0.03;67.24;96680.69;4981019;28;20232;-72
2023/12/18 01:35:09;;;;;;;26.87;20.73;;;;;;;-0.12;67.20;96679.22;4969701;28;20311;-72
2023/12/18 01:37:34;;;;;;;28.37;20.90;;;;;;;-0.12;67.05;96668.88;4994040;28;20271;-72
2023/12/18 01:40:00;;;;;;;27.43;20.70;;;;;;;-0.01;67.07;96671.97;4987349;28;20224;-72
2023/12/18 01:42:26;;;;;;;28.73;20.03;;;;;;;0.01;66.62;96663.34;4986356;28;20307;-71
2023/12/18 01:44:51;;;;;;;27.33;20.97;;;;;;;-0.16;66.63;96663.84;4975893;28;20328;-71
2023/12/18 01:47:17;;;;;;;27.57;19.87;;;;;;;-0.20;66.44;96655.34;4969033;28;20250;-71
2023/12/18 01:49:44;;;;;;;23.73;18.37;;;;;;;-0.27;67.01;96653.81;4986035;28;20251;-72
2023/12/18 01:52:09;;;;;;;23.87;18.70;;;;;;;-0.19;67.12;96641.50;4981760;28;20227;-72
2023/12/18 01:54:35;;;;;;;23.80;19.70;;;;;;;-0.17;66.24;96637.16;4973954;28;20248;-71
2023/12/18 01:57:03;;;;;;;22.57;18.93;;;;;;;-0.15;66.54;96643.13;4977251;28;20231;-72
2023/12/18 01:59:30;;;;;;;24.30;18.07;;;;;;;-0.22;66.93;96652.78;4983498;28;20303;-72
2023/12/18 02:01:56;;;;;;;23.77;19.57;;;;;;;-0.18;66.57;96650.97;4993001;28;20226;-71
2023/12/18 02:04:22;;;;;;;25.77;19.87;;;;;;;-0.09;66.56;96660.19;4988800;28;20227;-72
2023/12/18 02:06:48;;;;;;;24.50;19.33;;;;;;;-0.22;66.99;96655.38;4983305;28;20247;-73
2023/12/18 02:09:15;;;;;;;24.13;18.70;;;;;;;-0.23;66.84;96658.88;4988677;28;20235;-73
2023/12/18 02:11:43;;;;;;;25.57;20.33;;;;;;;-0.24;67.10;96657.19;4980769;28;20227;-73
2023/12/18 02:14:09;;;;;;;25.10;20.47;;;;;;;-0.26;66.70;96656.38;4987270;28;20250;-73
2023/12/18 02:16:35;;;;;;;26.33;18.20;;;;;;;-0.25;66.83;96657.22;4992119;28;20187;-73
2023/12/18 02:19:00;;;;;;;25.17;19.17;;;;;;;-0.17;66.42;96650.06;4988941;28;20311;-74
2023/12/18 02:21:26;;;;;;;26.10;19.87;;;;;;;-0.26;66.90;96645.19;4984570;28;20228;-73
2023/12/18 02:23:51;;;;;;;26.53;20.40;;;;;;;-0.19;66.79;96646.69;4979167;28;20233;-73
2023/12/18 02:26:17;;;;;;;25.53;19.90;;;;;;;-0.38;67.82;96641.22;4988270;28;20258;-74
2023/12/18 02:28:46;;;;;;;23.87;19.60;;;;;;;-0.14;67.06;96641.38;4991203;28;20242;-74
2023/12/18 02:31:15;;;;;;;26.57;17.70;;;;;;;-0.24;67.69;96649.44;4981647;28;20239;-74
2023/12/18 02:33:41;;;;;;;27.00;21.00;;;;;;;-0.27;67.87;96640.91;4982452;28;20228;-73
2023/12/18 02:36:07;;;;;;;24.47;19.93;;;;;;;-0.19;68.03;96644.09;4979187;28;20220;-72
2023/12/18 02:38:33;;;;;;;25.67;19.93;;;;;;;-0.28;67.78;96644.38;4977571;28;20285;-72
2023/12/18 02:40:59;;;;;;;24.93;20.20;;;;;;;-0.36;67.97;96641.19;4988817;28;20206;-72
2023/12/18 02:43:24;;;;;;;27.27;19.93;;;;;;;-0.30;67.77;96631.50;4994228;28;20188;-72
2023/12/18 02:45:49;;;;;;;26.73;20.87;;;;;;;-0.33;67.73;96643.69;4968378;28;20217;-72
2023/12/18 02:48:15;;;;;;;25.90;21.23;;;;;;;-0.35;67.67;96640.28;4976969;28;20330;-72
2023/12/18 02:50:40;;;;;;;26.13;21.00;;;;;;;-0.40;68.17;96637.88;4978440;28;20220;-72
2023/12/18 02:53:06;;;;;;;27.60;20.87;;;;;;;-0.40;67.91;96637.00;4970377;28;20193;-72
2023/12/18 02:55:31;;;;;;;27.43;21.97;;;;;;;-0.37;67.78;96650.69;4988287;28;20184;-72
2023/12/18 02:57:57;;;;;;;26.70;21.23;;;;;;;-0.58;68.89;96648.72;4977965;28;20343;-72
2023/12/18 03:00:22;;;;;;;26.23;21.50;;;;;;;-0.59;68.74;96640.09;4990221;28;20227;-72
2023/12/18 03:02:47;;;;;;;26.67;21.33;;;;;;;-0.51;68.50;96651.09;4989508;28;20306;-72
2023/12/18 03:05:14;;;;;;;25.07;20.60;;;;;;;-0.47;68.36;96641.50;4983718;28;20376;-72
2023/12/18 03:07:40;;;;;;;26.97;21.40;;;;;;;-0.48;68.25;96640.66;4980563;28;20259;-73
2023/12/18 03:10:05;;;;;;;25.87;20.13;;;;;;;-0.47;68.50;96652.69;4979572;28;20226;-73
2023/12/18 03:12:31;;;;;;;27.37;20.03;;;;;;;-0.47;68.11;96644.94;4987641;28;20223;-73
2023/12/18 03:14:57;;;;;;;26.87;21.27;;;;;;;-0.40;67.81;96647.31;4983632;28;20231;-73
2023/12/18 03:17:23;;;;;;;26.40;19.60;;;;;;;-0.51;68.00;96634.72;4987274;28;20231;-72
2023/12/18 03:19:48;;;;;;;25.47;19.60;;;;;;;-0.41;68.27;96640.47;4980772;28;20250;-73
2023/12/18 03:22:14;;;;;;;25.47;19.20;;;;;;;-0.34;68.03;96650.59;4984302;28;20255;-72
2023/12/18 03:24:40;;;;;;;23.70;18.67;;;;;;;-0.35;67.41;96646.28;4979133;28;20267;-72
2023/12/18 03:27:06;;;;;;;25.53;20.40;;;;;;;-0.53;67.80;96645.13;4973914;28;20327;-73
2023/12/18 03:29:31;;;;;;;24.90;19.93;;;;;;;-0.43;68.16;96643.09;4963605;28;20235;-73
2023/12/18 03:31:57;;;;;;;25.93;20.20;;;;;;;-0.50;67.44;96641.59;4984514;28;20318;-73
2023/12/18 03:34:22;;;;;;;24.80;19.27;;;;;;;-0.51;67.73;96638.19;4979755;28;20222;-72
2023/12/18 03:36:48;;;;;;;25.20;19.80;;;;;;;-0.51;67.58;96629.56;4975579;28;20258;-73
2023/12/18 03:39:13;;;;;;;23.43;18.47;;;;;;;-0.49;67.45;96628.63;4979452;28;20229;-73
2023/12/18 03:41:38;;;;;;;24.67;18.50;;;;;;;-0.48;67.25;96622.59;4973447;28;20265;-73
2023/12/18 03:44:04;;;;;;;22.40;17.53;;;;;;;-0.45;67.41;96630.25;4981532;28;20271;-73
2023/12/18 03:46:29;;;;;;;22.17;17.53;;;;;;;-0.39;66.71;96634.38;4980740;28;20201;-73
2023/12/18 03:48:55;;;;;;;24.03;18.17;;;;;;;-0.55;67.08;96623.63;4980831;28;20228;-73
2023/12/18 03:51:20;;;;;;;23.90;16.60;;;;;;;-0.48;66.96;96620.00;4981079;28;20231;-73
2023/12/18 03:53:46;;;;;;;21.57;17.23;;;;;;;-0.57;67.75;96611.66;4979940;28;20226;-73
2023/12/18 03:56:11;;;;;;;21.13;16.93;;;;;;;-0.52;67.56;96627.88;4988149;28;20276;-73
2023/12/18 03:58:37;;;;;;;18.67;13.70;;;;;;;-0.65;67.91;96618.78;4985217;28;20190;-73
2023/12/18 04:01:03;;;;;;;20.63;14.00;;;;;;;-0.80;67.73;96617.47;4971452;28;20338;-73
2023/12/18 04:03:28;;;;;;;19.50;13.50;;;;;;;-0.63;67.98;96625.59;4975819;28;20235;-73
2023/12/18 04:05:53;;;;;;;19.80;13.57;;;;;;;-0.54;67.52;96629.66;4970675;28;20239;-73
2023/12/18 04:08:19;;;;;;;18.13;14.73;;;;;;;-0.43;67.21;96626.75;4967841;28;20224;-73
2023/12/18 04:10:44;;;;;;;20.73;15.77;;;;;;;-0.41;67.05;96624.97;4978498;28;20182;-73
2023/12/18 04:13:10;;;;;;;19.97;15.33;;;;;;;-0.58;67.80;96636.66;4990535;28;20227;-74
2023/12/18 04:15:35;;;;;;;20.37;15.90;;;;;;;-0.61;67.31;96633.31;4991655;28;20220;-73
2023/12/18 04:18:01;;;;;;;20.43;14.87;;;;;;;-0.57;67.00;96633.16;4981956;28;20235;-73
2023/12/18 04:20:26;;;;;;;20.73;16.20;;;;;;;-0.56;66.71;96639.19;4983042;28;20228;-74
2023/12/18 04:22:52;;;;;;;22.27;15.60;;;;;;;-0.69;67.03;96636.13;4970586;28;20275;-73
2023/12/18 04:25:17;;;;;;;17.47;14.47;;;;;;;-0.59;66.40;96647.84;4983933;28;20224;-73
2023/12/18 04:27:43;;;;;;;20.63;15.13;;;;;;;-0.64;66.53;96634.25;4969370;28;20228;-73
2023/12/18 04:30:09;;;;;;;18.33;15.17;;;;;;;-0.66;66.53;96625.69;4973882;28;20251;-73
2023/12/18 04:32:34;;;;;;;18.47;15.10;;;;;;;-0.61;66.32;96628.16;4986546;28;20223;-73
2023/12/18 04:35:00;;;;;;;18.00;14.83;;;;;;;-0.62;65.84;96622.13;4981695;28;20206;-74
2023/12/18 04:37:25;;;;;;;17.90;13.70;;;;;;;-0.56;65.71;96627.13;4985108;28;20197;-74
2023/12/18 04:39:51;;;;;;;21.73;15.20;;;;;;;-0.63;65.88;96632.50;4965889;28;20240;-74
2023/12/18 04:42:16;;;;;;;20.03;15.87;;;;;;;-0.53;65.58;96632.19;4980301;28;20226;-75
2023/12/18 04:44:42;;;;;;;18.50;14.53;;;;;;;-0.57;65.30;96632.31;4983080;28;20233;-75
2023/12/18 04:47:07;;;;;;;17.43;14.20;;;;;;;-0.45;65.07;96635.41;4968104;28;20250;-73
2023/12/18 04:49:32;;;;;;;16.80;13.90;;;;;;;-0.52;65.82;96628.72;4991458;28;20188;-74
2023/12/18 04:51:58;;;;;;;15.53;13.47;;;;;;;-0.52;66.71;96639.06;4985413;28;20239;-73
2023/12/18 04:54:23;;;;;;;17.23;15.10;;;;;;;-0.37;66.45;96636.94;4989879;28;20223;-74
2023/12/18 04:56:49;;;;;;;15.00;12.37;;;;;;;-0.44;66.73;96641.41;4977740;28;20319;-74
2023/12/18 04:59:14;;;;;;;17.33;12.30;;;;;;;-0.45;66.78;96634.56;4970124;28;20214;-74
2023/12/18 05:01:40;;;;;;;18.93;15.47;;;;;;;-0.41;66.92;96635.31;4984852;28;20184;-75
2023/12/18 05:04:05;;;;;;;19.50;14.57;;;;;;;-0.37;66.74;96631.75;4969165;28;20231;-74
2023/12/18 05:06:31;;;;;;;20.93;14.47;;;;;;;-0.41;66.61;96630.97;4978253;28;20232;-73
2023/12/18 05:08:56;;;;;;;18.93;12.53;;;;;;;-0.45;66.47;96630.25;4983935;28;20221;-73
2023/12/18 05:11:24;;;;;;;16.87;12.30;;;;;;;-0.44;66.55;96625.91;4978087;28;20234;-72
2023/12/18 05:13:50;;;;;;;17.27;12.73;;;;;;;-0.39;66.81;96636.97;4961970;28;20203;-73
2023/12/18 05:16:16;;;;;;;17.17;12.70;;;;;;;-0.48;67.03;96638.09;4980471;28;20223;-73
2023/12/18 05:18:42;;;;;;;14.50;11.37;;;;;;;-0.38;66.71;96635.22;4986770;28;20231;-72
2023/12/18 05:21:10;;;;;;;16.00;11.07;;;;;;;-0.39;66.89;96639.53;4984976;28;20219;-72
2023/12/18 05:23:35;;;;;;;15.03;11.37;;;;;;;-0.40;66.60;96637.00;4968896;28;20227;-72
2023/12/18 05:26:00;;;;;;;15.27;10.90;;;;;;;-0.46;66.58;96627.69;4985448;28;20184;-74
2023/12/18 05:28:27;;;;;;;16.00;11.60;;;;;;;-0.40;66.45;96631.81;4988075;28;20217;-72
2023/12/18 05:30:53;;;;;;;16.50;12.30;;;;;;;-0.34;66.56;96622.16;4982842;28;20603;-72
2023/12/18 05:33:18;;;;;;;14.57;11.03;;;;;;;-0.43;66.68;96629.34;4975836;28;20304;-72
2023/12/18 05:35:44;;;;;;;14.70;10.77;;;;;;;-0.52;66.62;96626.13;4966546;28;20243;-71
2023/12/18 05:38:09;;;;;;;13.60;9.77;;;;;;;-0.50;66.25;96629.53;4980717;28;20199;-73
2023/12/18 05:40:35;;;;;;;15.70;10.50;;;;;;;-0.78;67.66;96626.03;4981641;28;20199;-71
2023/12/18 05:43:01;;;;;;;16.90;10.10;;;;;;;-0.59;67.23;96627.19;4976719;28;20219;-72
2023/12/18 05:45:26;;;;;;;14.17;10.50;;;;;;;-0.47;67.16;96626.84;4984601;28;20266;-72
2023/12/18 05:47:52;;;;;;;13.90;10.30;;;;;;;-0.56;67.37;96626.25;4974043;28;20228;-74
2023/12/18 05:50:17;;;;;;;16.10;11.83;;;;;;;-0.48;67.12;96634.66;4967341;28;20232;-74
2023/12/18 05:52:43;;;;;;;18.13;13.80;;;;;;;-0.48;67.38;96632.06;4975271;28;20200;-73
2023/12/18 05:55:09;;;;;;;17.30;15.33;;;;;;;-0.63;67.63;96641.09;4990688;28;20285;-73
2023/12/18 05:57:38;;;;;;;21.93;17.43;;;;;;;-0.71;67.92;96627.56;4989165;28;20239;-73
2023/12/18 06:00:05;;;;;;;22.87;17.67;;;;;;;-0.61;67.98;96630.75;4985420;28;20228;-73
2023/12/18 06:02:31;;;;;;;25.03;18.60;;;;;;;-0.63;67.96;96635.94;4990124;28;20230;-73
2023/12/18 06:04:56;;;;;;;23.10;18.33;;;;;;;-0.72;68.14;96643.97;4983413;28;20209;-72
2023/12/18 06:07:22;;;;;;;23.13;18.17;;;;;;;-0.75;68.06;96641.44;4969202;28;20227;-73
2023/12/18 06:09:47;;;;;;;23.80;17.43;;;;;;;-0.83;68.39;96646.81;4982216;28;20229;-73
2023/12/18 06:12:13;;;;;;;23.10;16.90;;;;;;;-0.79;68.53;96645.00;4986704;28;20266;-74
2023/12/18 06:14:38;;;;;;;23.10;17.00;;;;;;;-0.64;68.56;96641.13;4989375;28;20219;-74
2023/12/18 06:17:04;;;;;;;22.73;16.80;;;;;;;-0.66;68.66;96636.03;4985854;28;20190;-73
2023/12/18 06:19:29;;;;;;;19.47;15.40;;;;;;;-0.61;67.82;96639.34;4994395;28;20196;-77
2023/12/18 06:21:55;;;;;;;20.63;16.03;;;;;;;-0.60;67.94;96643.59;4990785;28;20232;-70
2023/12/18 06:24:20;;;;;;;22.40;17.03;;;;;;;-0.48;67.92;96645.00;4982621;28;20223;-71
2023/12/18 06:26:46;;;;;;;24.03;16.80;;;;;;;-0.65;68.23;96647.22;4974139;28;20243;-71
2023/12/18 06:29:11;;;;;;;22.57;17.47;;;;;;;-0.70;68.17;96648.16;4967499;28;20270;-74
2023/12/18 06:31:36;;;;;;;21.17;18.00;;;;;;;-0.64;68.32;96644.59;4972183;28;20203;-71
2023/12/18 06:34:03;;;;;;;23.17;17.30;;;;;;;-0.62;68.28;96647.13;4979715;28;20219;-71
2023/12/18 06:36:29;;;;;;;21.80;16.77;;;;;;;-0.62;68.38;96636.78;4985095;28;20231;-71
2023/12/18 06:38:54;;;;;;;24.17;17.20;;;;;;;-0.64;68.64;96634.25;4982587;28;20222;-70
2023/12/18 06:41:19;;;;;;;20.97;16.53;;;;;;;-0.40;67.91;96644.75;4966437;28;20227;-71
2023/12/18 06:43:45;;;;;;;21.40;17.67;;;;;;;-0.58;68.59;96626.31;4978672;28;20190;-72
2023/12/18 06:46:10;;;;;;;22.03;15.33;;;;;;;-0.35;68.07;96625.63;4984514;28;20262;-71
2023/12/18 06:48:36;;;;;;;23.93;17.23;;;;;;;-0.13;67.56;96630.16;5003295;28;20235;-71
2023/12/18 06:51:01;;;;;;;21.07;15.83;;;;;;;-0.18;67.41;96638.06;4983255;28;20223;-72
2023/12/18 06:53:27;;;;;;;24.07;17.27;;;;;;;0.09;67.08;96626.00;4981136;28;20227;-71
2023/12/18 06:55:52;;;;;;;20.80;16.60;;;;;;;0.25;66.55;96630.69;4987934;28;20186;-71
2023/12/18 06:58:17;;;;;;;20.70;15.43;;;;;;;-0.03;67.13;96632.41;4983442;28;20227;-70
2023/12/18 07:00:43;;;;;;;23.90;17.37;;;;;;;-0.12;67.96;96624.94;4978177;28;20223;-70
2023/12/18 07:03:09;;;;;;;22.80;16.00;;;;;;;0.08;67.58;96623.44;4988510;28;20230;-71
2023/12/18 07:05:35;;;;;;;23.17;15.10;;;;;;;0.24;66.79;96631.56;4978725;28;20243;-70
2023/12/18 07:08:00;;;;;;;21.60;15.73;;;;;;;0.31;66.42;96633.91;4991782;28;20203;-71
2023/12/18 07:10:26;;;;;;;22.47;16.40;;;;;;;0.55;66.08;96639.19;4989272;28;20274;-71
2023/12/18 07:12:51;;;;;;;22.07;16.07;;;;;;;0.42;66.23;96637.00;4968320;28;20282;-70
2023/12/18 07:15:17;;;;;;;23.30;15.93;;;;;;;0.45;66.29;96636.03;4978658;28;20226;-71
2023/12/18 07:17:42;;;;;;;20.73;15.73;;;;;;;0.45;66.24;96648.97;4988095;28;20268;-71
2023/12/18 07:20:08;;;;;;;21.97;15.73;;;;;;;0.47;66.18;96648.94;4989341;28;20188;-71
2023/12/18 07:22:34;;;;;;;24.67;17.07;;;;;;;0.40;66.35;96637.94;4987156;28;20188;-71
2023/12/18 07:25:00;;;;;;;25.27;17.80;;;;;;;0.47;65.87;96641.19;4987924;28;20250;-72
2023/12/18 07:27:26;;;;;;;24.53;18.63;;;;;;;0.51;65.92;96648.81;4974442;28;20223;-72
2023/12/18 07:29:51;;;;;;;25.03;17.70;;;;;;;0.67;65.23;96636.19;4986512;28;20306;-70
2023/12/18 07:32:17;;;;;;;24.60;16.97;;;;;;;0.69;64.96;96626.63;4984569;28;20258;-70
2023/12/18 07:34:43;;;;;;;26.70;18.67;;;;;;;0.85;64.84;96638.13;4986080;28;20234;-76
2023/12/18 07:37:08;;;;;;;24.63;18.83;;;;;;;0.85;64.83;96632.94;4983812;28;20270;-74
2023/12/18 07:39:34;;;;;;;28.77;19.50;;;;;;;0.77;64.96;96634.97;4992818;28;20225;-77
2023/12/18 07:42:00;;;;;;;32.37;19.40;;;;;;;0.72;65.18;96639.44;4989947;28;20220;-72
2023/12/18 07:44:25;;;;;;;24.47;17.33;;;;;;;0.94;64.40;96631.81;4985557;28;20227;-74
2023/12/18 07:46:52;;;;;;;27.53;18.50;;;;;;;1.07;64.13;96632.22;4993129;28;20225;-74
2023/12/18 07:49:17;;;;;;;23.93;17.67;;;;;;;0.89;64.85;96633.72;4988790;28;20223;-75
2023/12/18 07:51:43;;;;;;;21.87;17.57;;;;;;;1.10;64.92;96630.38;4967293;28;20251;-76
2023/12/18 07:54:08;;;;;;;25.20;18.43;;;;;;;1.04;65.03;96627.13;4987009;28;20223;-76
2023/12/18 07:56:34;;;;;;;22.87;18.10;;;;;;;1.43;63.87;96624.00;4982345;28;20225;-73
2023/12/18 07:59:00;;;;;;;24.33;17.67;;;;;;;1.54;63.43;96629.63;4965607;28;20416;-72
2023/12/18 08:01:25;;;;;;;42.87;18.87;;;;;;;1.23;64.57;96623.00;4992370;28;20183;-74
2023/12/18 08:03:50;;;;;;;25.50;18.87;;;;;;;1.47;63.41;96622.97;4988851;28;20227;-74
2023/12/18 08:06:17;;;;;;;27.20;19.40;;;;;;;1.17;64.76;96623.22;4988818;28;20273;-72
2023/12/18 08:08:42;;;;;;;26.03;20.53;;;;;;;1.08;64.67;96614.03;4986881;28;20242;-74
2023/12/18 08:11:07;;;;;;;26.17;18.30;;;;;;;1.50;63.75;96620.31;4992069;28;20224;-75
2023/12/18 08:13:38;;;;;;;24.90;18.93;;;;;;;1.72;63.39;96623.75;4981637;28;20206;-73
2023/12/18 08:16:05;;;;;;;27.87;19.13;;;;;;;1.74;63.57;96619.38;4979246;28;20223;-74
2023/12/18 08:18:31;;;;;;;21.70;17.90;;;;;;;1.83;62.61;96619.91;4979748;28;20231;-71
2023/12/18 08:20:56;;;;;;;25.57;18.63;;;;;;;1.63;63.10;96628.44;4982775;28;20228;-71
2023/12/18 08:23:22;;;;;;;23.93;18.17;;;;;;;1.59;62.87;96619.09;4984126;28;20224;-72
2023/12/18 08:25:47;;;;;;;28.17;21.10;;;;;;;1.64;63.18;96624.97;4968922;28;20208;-73
2023/12/18 08:28:13;;;;;;;25.93;20.03;;;;;;;1.64;62.98;96623.22;4983892;28;20233;-73
2023/12/18 08:30:38;;;;;;;25.30;19.30;;;;;;;1.67;63.12;96622.25;4981244;28;20295;-73
2023/12/18 08:33:04;;;;;;;24.03;19.20;;;;;;;1.85;62.63;96620.72;4962469;28;20223;-74
2023/12/18 08:35:29;;;;;;;25.17;19.50;;;;;;;1.82;62.86;96621.69;4961404;28;20327;-73
2023/12/18 08:37:54;;;;;;;26.83;20.27;;;;;;;1.66;63.44;96621.41;4964664;28;20184;-75
2023/12/18 08:40:20;;;;;;;26.67;20.70;;;;;;;1.82;63.71;96624.25;4970735;28;20231;-74
2023/12/18 08:42:46;;;;;;;36.50;25.87;;;;;;;2.01;63.36;96620.97;4969081;28;20220;-75
2023/12/18 08:45:11;;;;;;;51.13;36.90;;;;;;;1.97;63.81;96620.22;4971622;28;20335;-73
2023/12/18 08:47:37;;;;;;;57.33;41.80;;;;;;;2.13;63.52;96616.09;4980559;28;20237;-73
2023/12/18 08:50:02;;;;;;;57.53;44.17;;;;;;;2.27;63.13;96617.31;4979102;28;20204;-73
2023/12/18 08:52:28;;;;;;;60.10;43.93;;;;;;;2.17;63.59;96607.31;4971687;28;20227;-73
2023/12/18 08:54:53;;;;;;;62.43;47.00;;;;;;;2.18;63.59;96614.19;4985873;28;20219;-75
2023/12/18 08:57:22;;;;;;;55.67;43.47;;;;;;;2.46;63.57;96617.41;4986848;28;20227;-72
2023/12/18 08:59:50;;;;;;;55.63;42.80;;;;;;;2.47;62.81;96609.56;4990064;28;20250;-74
2023/12/18 09:02:15;;;;;;;56.80;44.13;;;;;;;2.61;62.52;96602.03;4988604;28;20265;-74
2023/12/18 09:04:41;;;;;;;57.33;44.30;;;;;;;2.72;62.20;96608.53;4988790;28;20218;-73
2023/12/18 09:07:06;;;;;;;57.30;44.67;;;;;;;2.47;62.61;96599.16;4990086;28;20230;-70
2023/12/18 09:09:32;;;;;;;55.50;43.47;;;;;;;2.67;62.68;96607.88;4992494;28;20223;-72
2023/12/18 09:11:57;;;;;;;53.07;42.83;;;;;;;2.82;60.93;96591.66;4989170;28;20242;-72
2023/12/18 09:14:23;;;;;;;53.47;39.93;;;;;;;2.39;62.88;96589.09;4987011;28;20209;-72
2023/12/18 09:16:49;;;;;;;50.13;40.93;;;;;;;2.37;63.74;96592.66;4995003;28;20201;-70
2023/12/18 09:19:14;;;;;;;53.23;42.97;;;;;;;2.48;63.26;96590.47;4988335;28;20242;-72
2023/12/18 09:21:39;;;;;;;52.10;42.40;;;;;;;2.57;63.13;96586.66;4986797;28;20227;-72
2023/12/18 09:24:05;;;;;;;53.50;41.80;;;;;;;2.72;62.40;96578.19;4974996;28;20228;-72
2023/12/18 09:26:31;;;;;;;56.27;42.30;;;;;;;2.87;62.02;96581.91;4954390;28;20228;-71
2023/12/18 09:28:56;;;;;;;49.43;40.20;;;;;;;2.95;62.26;96585.00;4971257;28;20188;-75
2023/12/18 09:31:22;;;;;;;49.00;39.53;;;;;;;2.89;61.95;96572.28;4969053;28;20231;-73
2023/12/18 09:33:47;;;;;;;47.07;40.07;;;;;;;3.05;62.08;96569.88;4966981;28;20224;-74
2023/12/18 09:36:13;;;;;;;48.70;37.70;;;;;;;3.00;61.90;96569.22;4964223;28;20235;-75
2023/12/18 09:38:39;;;;;;;46.67;36.73;;;;;;;3.19;60.87;96561.44;4965101;28;20230;-75
2023/12/18 09:41:04;;;;;;;46.37;35.83;;;;;;;3.22;61.13;96561.31;4964611;28;20192;-72
2023/12/18 09:43:30;;;;;;;42.97;34.43;;;;;;;3.09;61.03;96554.06;4968355;28;20285;-70
2023/12/18 09:45:57;;;;;;;39.00;32.60;;;;;;;3.14;61.32;96548.66;4981880;28;20242;-73
2023/12/18 09:48:23;;;;;;;39.37;33.43;;;;;;;3.34;60.40;96547.75;4986763;28;20249;-73
2023/12/18 09:50:48;;;;;;;39.60;31.53;;;;;;;3.47;60.16;96543.66;4989991;28;20226;-76
2023/12/18 09:53:17;;;;;;;40.13;33.40;;;;;;;3.62;59.89;96534.31;4990261;28;20197;-73
2023/12/18 09:55:44;;;;;;;39.33;31.70;;;;;;;3.51;60.05;96541.78;4991453;28;20183;-75
2023/12/18 09:58:13;;;;;;;41.67;32.30;;;;;;;3.49;60.59;96538.41;4990383;28;20298;-70
2023/12/18 10:00:39;;;;;;;37.70;30.03;;;;;;;3.51;59.58;96533.97;4972440;28;20246;-73
2023/12/18 10:03:05;;;;;;;38.00;30.83;;;;;;;3.51;59.83;96527.00;4979549;28;20261;-71
2023/12/18 10:05:30;;;;;;;40.20;31.67;;;;;;;3.63;59.94;96530.78;4983918;28;20235;-76
2023/12/18 10:07:59;;;;;;;37.70;32.07;;;;;;;3.78;59.88;96528.41;4968123;28;20196;-75
2023/12/18 10:10:25;;;;;;;38.23;31.23;;;;;;;3.86;59.46;96524.50;4995781;28;20222;-69
2023/12/18 10:12:50;;;;;;;42.43;32.17;;;;;;;3.94;59.20;96524.97;4986914;28;20266;-77
2023/12/18 10:15:16;;;;;;;42.03;33.17;;;;;;;4.16;59.20;96516.94;4985764;28;20261;-78
2023/12/18 10:17:45;;;;;;;39.67;34.13;;;;;;;4.10;58.38;96513.81;4986043;28;20235;-70
2023/12/18 10:20:12;;;;;;;44.00;34.70;;;;;;;4.22;58.24;96515.78;4987960;28;20211;-75
2023/12/18 10:22:41;;;;;;;45.03;35.07;;;;;;;4.30;58.00;96523.22;4987894;28;20274;-72
2023/12/18 10:25:09;;;;;;;44.87;33.00;;;;;;;4.29;58.18;96511.13;4993978;28;20228;-71
2023/12/18 10:27:38;;;;;;;42.90;34.17;;;;;;;4.51;58.75;96510.91;4993921;28;20227;-75
2023/12/18 10:30:07;;;;;;;47.40;36.73;;;;;;;4.57;58.35;96508.84;4979869;28;20232;-71
2023/12/18 10:32:35;;;;;;;40.90;33.43;;;;;;;4.83;57.59;96504.03;4979870;28;20243;-74
2023/12/18 10:35:01;;;;;;;45.40;36.00;;;;;;;4.77;56.87;96507.78;4991277;28;20183;-74
2023/12/18 10:37:29;;;;;;;41.07;34.50;;;;;;;4.72;57.36;96499.38;4989441;28;20235;-76
2023/12/18 10:39:59;;;;;;;44.43;35.00;;;;;;;4.77;57.17;96497.38;4973765;28;20231;-76
2023/12/18 10:42:35;;;;;;;42.57;33.97;;;;;;;4.91;57.90;96495.81;4962569;28;20224;-74
2023/12/18 10:45:03;;;;;;;39.43;32.30;;;;;;;5.05;57.34;96499.38;4974417;28;20285;-72
2023/12/18 10:47:30;;;;;;;42.70;33.97;;;;;;;5.19;56.67;96483.00;4974183;28;20224;-73
2023/12/18 10:49:59;;;;;;;39.53;32.33;;;;;;;5.55;56.87;96474.06;4973637;28;20249;-74
2023/12/18 10:52:27;;;;;;;38.73;31.80;;;;;;;5.70;55.77;96452.34;4972715;28;20224;-76
2023/12/18 10:54:54;;;;;;;38.40;31.47;;;;;;;5.68;55.09;96462.00;4969012;28;20223;-74
2023/12/18 10:57:20;;;;;;;36.60;32.20;;;;;;;5.71;55.63;96456.63;4962660;28;20235;-73
2023/12/18 10:59:49;;;;;;;42.43;32.53;;;;;;;5.64;55.60;96444.88;4970808;28;20318;-75
2023/12/18 11:02:16;;;;;;;43.47;33.17;;;;;;;5.69;56.12;96447.19;4971219;28;20199;-73
2023/12/18 11:04:48;;;;;;;42.87;34.67;;;;;;;5.65;56.35;96438.69;4971668;28;20206;-75
2023/12/18 11:07:17;;;;;;;40.43;32.23;;;;;;;5.62;56.34;96423.22;4960207;28;20232;-71
2023/12/18 11:09:47;;;;;;;37.43;32.03;;;;;;;5.65;56.07;96425.66;4966516;28;20271;-74
2023/12/18 11:12:15;;;;;;;39.03;32.10;;;;;;;5.82;56.69;96426.47;4961620;28;20238;-71
2023/12/18 11:14:58;;;;;;;46.17;33.10;;;;;;;5.79;56.43;96413.59;4964859;28;20240;-73